Time,TemperatureF,DewpointF,PressureIn,WindDirection,WindDirectionDegrees,WindSpeedMPH,WindSpeedGustMPH,Humidity,HourlyPrecipIn,Conditions,Clouds,dailyrainin,SoftwareType,DateUTC
2013-08-23 00:00:00,56.9,52.1,29.88,SSE,157,0.0,7.0,84,0.00,,,0.00,Wunderground v.1.15,2013-08-23 07:00:00,
2013-08-23 00:05:00,56.3,51.8,29.88,N/A,-737280,0.0,-999.0,85,0.00,,,0.00,Wunderground v.1.15,2013-08-23 07:05:00,
2013-08-23 00:10:00,56.8,52.0,29.88,SSE,157,0.0,7.0,84,0.00,,,0.00,Wunderground v.1.15,2013-08-23 07:10:00,
2013-08-23 00:15:00,56.7,52.2,29.88,SSE,157,0.0,7.0,85,0.00,,,0.00,Wunderground v.1.15,2013-08-23 07:15:00,
2013-08-23 00:20:00,56.5,52.0,29.88,SSE,157,0.0,7.0,85,0.00,,,0.00,Wunderground v.1.15,2013-08-23 07:20:00,
2013-08-23 00:25:00,56.4,51.9,29.88,SSE,157,0.0,7.0,85,0.00,,,0.00,Wunderground v.1.15,2013-08-23 07:25:00,
2013-08-23 00:30:00,56.3,51.8,29.88,N/A,-737280,0.0,-999.0,85,0.00,,,0.00,Wunderground v.1.15,2013-08-23 07:30:00,
2013-08-23 00:35:00,56.2,51.7,29.88,SSE,157,0.0,7.0,85,0.00,,,0.00,Wunderground v.1.15,2013-08-23 07:35:00,
2013-08-23 00:39:00,56.0,51.6,29.88,SSE,157,0.0,7.0,85,0.00,,,0.00,Wunderground v.1.15,2013-08-23 07:39:00,
2013-08-23 00:40:00,56.3,51.8,29.88,N/A,-737280,0.0,-999.0,85,0.00,,,0.00,Wunderground v.1.15,2013-08-23 07:40:00,
2013-08-23 00:45:00,55.9,51.5,29.88,SSE,157,0.0,7.0,85,0.00,,,0.00,Wunderground v.1.15,2013-08-23 07:45:00,
2013-08-23 00:50:00,55.9,51.8,29.88,SSE,157,0.0,7.0,86,0.00,,,0.00,Wunderground v.1.15,2013-08-23 07:50:00,
2013-08-23 00:55:00,55.9,51.8,29.88,SSE,157,0.0,7.0,86,0.00,,,0.00,Wunderground v.1.15,2013-08-23 07:55:00,
2013-08-23 01:00:00,55.8,51.7,29.88,SSE,157,0.0,7.0,86,0.00,,,0.00,Wunderground v.1.15,2013-08-23 08:00:00,
2013-08-23 01:05:00,55.8,51.7,29.88,SSE,157,0.0,7.0,86,0.00,,,0.00,Wunderground v.1.15,2013-08-23 08:05:00,
2013-08-23 01:10:00,55.7,51.6,29.88,SSE,157,0.0,7.0,86,0.00,,,0.00,Wunderground v.1.15,2013-08-23 08:10:00,
2013-08-23 01:15:00,55.5,51.4,29.87,SSE,157,0.0,7.0,86,0.00,,,0.00,Wunderground v.1.15,2013-08-23 08:15:00,
2013-08-23 01:20:00,55.5,51.7,29.87,SSE,157,0.0,7.0,87,0.00,,,0.00,Wunderground v.1.15,2013-08-23 08:20:00,
2013-08-23 01:25:00,55.4,51.6,29.87,SSE,157,0.0,7.0,87,0.00,,,0.00,Wunderground v.1.15,2013-08-23 08:25:00,
2013-08-23 01:30:00,55.3,51.5,29.87,SSE,157,0.0,7.0,87,0.00,,,0.00,Wunderground v.1.15,2013-08-23 08:30:00,
2013-08-23 01:35:00,55.3,51.5,29.87,N/A,-737280,0.0,-999.0,87,0.00,,,0.00,Wunderground v.1.15,2013-08-23 08:35:00,
2013-08-23 01:39:00,55.2,51.4,29.87,SSE,157,0.0,7.0,87,0.00,,,0.00,Wunderground v.1.15,2013-08-23 08:39:00,
2013-08-23 01:40:00,55.3,51.5,29.87,N/A,-737280,0.0,-999.0,87,0.00,,,0.00,Wunderground v.1.15,2013-08-23 08:40:00,
2013-08-23 01:45:00,55.1,51.3,29.87,SSE,157,0.0,7.0,87,0.00,,,0.00,Wunderground v.1.15,2013-08-23 08:45:00,
2013-08-23 01:50:00,54.8,51.0,29.87,N/A,-737280,0.0,-999.0,87,0.00,,,0.00,Wunderground v.1.15,2013-08-23 08:50:00,
2013-08-23 01:55:00,54.9,51.1,29.87,SSE,157,0.0,7.0,87,0.00,,,0.00,Wunderground v.1.15,2013-08-23 08:55:00,
2013-08-23 02:00:00,54.8,51.0,29.87,SSE,157,0.0,7.0,87,0.00,,,0.00,Wunderground v.1.15,2013-08-23 09:00:00,
2013-08-23 02:05:00,54.8,51.3,29.87,SSE,157,0.0,7.0,88,0.00,,,0.00,Wunderground v.1.15,2013-08-23 09:05:00,
2013-08-23 02:10:00,54.7,51.2,29.87,SSE,157,0.0,7.0,88,0.00,,,0.00,Wunderground v.1.15,2013-08-23 09:10:00,
2013-08-23 02:15:00,54.6,51.1,29.86,SSE,157,0.0,7.0,88,0.00,,,0.00,Wunderground v.1.15,2013-08-23 09:15:00,
2013-08-23 02:20:00,54.4,50.9,29.86,N/A,-737280,0.0,-999.0,88,0.00,,,0.00,Wunderground v.1.15,2013-08-23 09:20:00,
2013-08-23 02:25:00,54.4,50.9,29.86,SSE,157,0.0,7.0,88,0.00,,,0.00,Wunderground v.1.15,2013-08-23 09:25:00,
2013-08-23 02:30:00,54.4,50.9,29.86,SSE,157,0.0,7.0,88,0.00,,,0.00,Wunderground v.1.15,2013-08-23 09:30:00,
2013-08-23 02:35:00,54.3,50.8,29.86,SSE,157,0.0,7.0,88,0.00,,,0.00,Wunderground v.1.15,2013-08-23 09:35:00,
2013-08-23 02:40:00,54.4,50.9,29.86,N/A,-737280,0.0,-999.0,88,0.00,,,0.00,Wunderground v.1.15,2013-08-23 09:40:00,
2013-08-23 02:44:00,54.1,50.6,29.86,SSE,157,0.0,7.0,88,0.00,,,0.00,Wunderground v.1.15,2013-08-23 09:44:00,
2013-08-23 02:45:00,53.9,50.4,29.86,N/A,-737280,0.0,-999.0,88,0.00,,,0.00,Wunderground v.1.15,2013-08-23 09:45:00,
2013-08-23 02:50:00,54.0,50.5,29.86,SSE,157,0.0,7.0,88,0.00,,,0.00,Wunderground v.1.15,2013-08-23 09:50:00,
2013-08-23 02:55:00,53.9,50.4,29.86,N/A,-737280,0.0,-999.0,88,0.00,,,0.00,Wunderground v.1.15,2013-08-23 09:55:00,
2013-08-23 03:00:00,53.9,50.4,29.86,SSE,157,0.0,7.0,88,0.00,,,0.00,Wunderground v.1.15,2013-08-23 10:00:00,
2013-08-23 03:05:00,53.8,50.3,29.86,SSE,157,0.0,7.0,88,0.00,,,0.00,Wunderground v.1.15,2013-08-23 10:05:00,
2013-08-23 03:10:00,53.7,50.5,29.86,SSE,157,0.0,7.0,89,0.00,,,0.00,Wunderground v.1.15,2013-08-23 10:10:00,
2013-08-23 03:15:00,53.7,50.2,29.86,SSE,157,0.0,7.0,88,0.00,,,0.00,Wunderground v.1.15,2013-08-23 10:15:00,
2013-08-23 03:20:00,53.6,50.1,29.86,SSE,157,0.0,7.0,88,0.00,,,0.00,Wunderground v.1.15,2013-08-23 10:20:00,
2013-08-23 03:25:00,53.5,50.3,29.86,N/A,-737280,0.0,-999.0,89,0.00,,,0.00,Wunderground v.1.15,2013-08-23 10:25:00,
2013-08-23 03:30:00,53.5,50.3,29.86,SSE,157,0.0,7.0,89,0.00,,,0.00,Wunderground v.1.15,2013-08-23 10:30:00,
2013-08-23 03:35:00,53.4,50.2,29.86,SSE,157,0.0,7.0,89,0.00,,,0.00,Wunderground v.1.15,2013-08-23 10:35:00,
2013-08-23 03:40:00,53.5,50.3,29.86,N/A,-737280,0.0,-999.0,89,0.00,,,0.00,Wunderground v.1.15,2013-08-23 10:40:00,
2013-08-23 03:44:00,53.2,50.0,29.85,SSE,157,0.0,7.0,89,0.00,,,0.00,Wunderground v.1.15,2013-08-23 10:44:00,
2013-08-23 03:45:00,53.0,49.8,29.85,N/A,-737280,0.0,-999.0,89,0.00,,,0.00,Wunderground v.1.15,2013-08-23 10:45:00,
2013-08-23 03:50:00,53.2,50.0,29.85,SSE,157,0.0,7.0,89,0.00,,,0.00,Wunderground v.1.15,2013-08-23 10:50:00,
2013-08-23 03:55:00,53.1,49.9,29.85,SSE,157,0.0,7.0,89,0.00,,,0.00,Wunderground v.1.15,2013-08-23 10:55:00,
2013-08-23 04:00:00,53.0,49.8,29.85,N/A,-737280,0.0,-999.0,89,0.00,,,0.00,Wunderground v.1.15,2013-08-23 11:00:00,
2013-08-23 04:05:00,53.0,49.8,29.85,SSE,157,0.0,7.0,89,0.00,,,0.00,Wunderground v.1.15,2013-08-23 11:05:00,
2013-08-23 04:10:00,52.9,49.7,29.85,SSE,157,0.0,7.0,89,0.00,,,0.00,Wunderground v.1.15,2013-08-23 11:10:00,
2013-08-23 04:15:00,52.9,49.7,29.85,SSE,157,0.0,7.0,89,0.00,,,0.00,Wunderground v.1.15,2013-08-23 11:15:00,
2013-08-23 04:20:00,52.8,49.6,29.85,SSE,157,0.0,7.0,89,0.00,,,0.00,Wunderground v.1.15,2013-08-23 11:20:00,
2013-08-23 04:25:00,52.8,49.6,29.85,SSE,157,0.0,7.0,89,0.00,,,0.00,Wunderground v.1.15,2013-08-23 11:25:00,
2013-08-23 04:30:00,52.7,49.5,29.85,SSE,157,0.0,7.0,89,0.00,,,0.00,Wunderground v.1.15,2013-08-23 11:30:00,
2013-08-23 04:35:00,52.7,49.5,29.84,SSE,157,0.0,7.0,89,0.00,,,0.00,Wunderground v.1.15,2013-08-23 11:35:00,
2013-08-23 04:40:00,52.6,49.4,29.84,SSE,157,0.0,7.0,89,0.00,,,0.00,Wunderground v.1.15,2013-08-23 11:40:00,
2013-08-23 04:45:00,52.6,49.4,29.84,SSE,157,0.0,7.0,89,0.00,,,0.00,Wunderground v.1.15,2013-08-23 11:45:00,
2013-08-23 04:50:00,52.4,49.3,29.85,N/A,-737280,0.0,-999.0,89,0.00,,,0.00,Wunderground v.1.15,2013-08-23 11:50:00,
2013-08-23 04:54:00,52.4,49.3,29.85,SSE,157,0.0,7.0,89,0.00,,,0.00,Wunderground v.1.15,2013-08-23 11:54:00,
2013-08-23 04:55:00,52.4,49.3,29.85,N/A,-737280,0.0,-999.0,89,0.00,,,0.00,Wunderground v.1.15,2013-08-23 11:55:00,
2013-08-23 05:00:00,52.4,49.3,29.85,SSE,157,0.0,7.0,89,0.00,,,0.00,Wunderground v.1.15,2013-08-23 12:00:00,
2013-08-23 05:05:00,52.3,49.5,29.85,SSE,157,0.0,7.0,90,0.00,,,0.00,Wunderground v.1.15,2013-08-23 12:05:00,
2013-08-23 05:10:00,52.4,49.3,29.85,N/A,-737280,0.0,-999.0,89,0.00,,,0.00,Wunderground v.1.15,2013-08-23 12:10:00,
2013-08-23 05:15:00,52.2,49.1,29.85,SSE,157,0.0,7.0,89,0.00,,,0.00,Wunderground v.1.15,2013-08-23 12:15:00,
2013-08-23 05:20:00,52.1,49.3,29.85,SSE,157,0.0,7.0,90,0.00,,,0.00,Wunderground v.1.15,2013-08-23 12:20:00,
2013-08-23 05:25:00,52.0,48.9,29.85,SSE,157,0.0,7.0,89,0.00,,,0.00,Wunderground v.1.15,2013-08-23 12:25:00,
2013-08-23 05:30:00,51.9,48.8,29.85,SSE,157,0.0,7.0,89,0.00,,,0.00,Wunderground v.1.15,2013-08-23 12:30:00,
2013-08-23 05:35:00,51.9,49.1,29.85,SSE,157,0.0,7.0,90,0.00,,,0.00,Wunderground v.1.15,2013-08-23 12:35:00,
2013-08-23 05:40:00,51.9,49.1,29.85,SSE,157,0.0,7.0,90,0.00,,,0.00,Wunderground v.1.15,2013-08-23 12:40:00,
2013-08-23 05:45:00,51.8,49.0,29.85,SSE,157,0.0,7.0,90,0.00,,,0.00,Wunderground v.1.15,2013-08-23 12:45:00,
2013-08-23 05:50:00,51.7,48.9,29.85,SSE,157,0.0,7.0,90,0.00,,,0.00,Wunderground v.1.15,2013-08-23 12:50:00,
2013-08-23 05:55:00,51.6,48.8,29.85,SSE,157,0.0,7.0,90,0.00,,,0.00,Wunderground v.1.15,2013-08-23 12:55:00,
2013-08-23 06:00:00,51.5,48.7,29.86,N/A,-737280,0.0,-999.0,90,0.00,,,0.00,Wunderground v.1.15,2013-08-23 13:00:00,
2013-08-23 06:05:00,51.4,48.6,29.86,SSE,157,0.0,7.0,90,0.00,,,0.00,Wunderground v.1.15,2013-08-23 13:05:00,
2013-08-23 06:10:00,51.3,48.5,29.86,SSE,157,0.0,7.0,90,0.00,,,0.00,Wunderground v.1.15,2013-08-23 13:10:00,
2013-08-23 06:15:00,51.3,48.5,29.85,SSE,157,0.0,7.0,90,0.00,,,0.00,Wunderground v.1.15,2013-08-23 13:15:00,
2013-08-23 06:20:00,51.1,48.3,29.86,SSE,157,0.0,7.0,90,0.00,,,0.00,Wunderground v.1.15,2013-08-23 13:20:00,
2013-08-23 06:25:00,51.1,48.3,29.86,SSE,157,0.0,7.0,90,0.00,,,0.00,Wunderground v.1.15,2013-08-23 13:25:00,
2013-08-23 06:30:00,51.0,48.2,29.86,SSE,157,0.0,7.0,90,0.00,,,0.00,Wunderground v.1.15,2013-08-23 13:30:00,
2013-08-23 06:35:00,50.9,48.1,29.86,SSE,157,0.0,7.0,90,0.00,,,0.00,Wunderground v.1.15,2013-08-23 13:35:00,
2013-08-23 06:40:00,50.9,48.1,29.86,SSE,157,0.0,7.0,90,0.00,,,0.00,Wunderground v.1.15,2013-08-23 13:40:00,
2013-08-23 06:45:00,50.9,48.1,29.86,SSE,157,0.0,7.0,90,0.00,,,0.00,Wunderground v.1.15,2013-08-23 13:45:00,
2013-08-23 06:50:00,50.9,48.4,29.87,N/A,-737280,0.0,-999.0,91,0.00,,,0.00,Wunderground v.1.15,2013-08-23 13:50:00,
2013-08-23 06:55:00,50.9,48.4,29.87,SSE,157,0.0,7.0,91,0.00,,,0.00,Wunderground v.1.15,2013-08-23 13:55:00,
2013-08-23 07:00:00,51.0,48.5,29.87,SSE,157,0.0,7.0,91,0.00,,,0.00,Wunderground v.1.15,2013-08-23 14:00:00,
2013-08-23 07:05:00,50.9,48.4,29.87,N/A,-737280,0.0,-999.0,91,0.00,,,0.00,Wunderground v.1.15,2013-08-23 14:05:00,
2013-08-23 07:10:00,51.1,48.6,29.87,SSE,157,0.0,7.0,91,0.00,,,0.00,Wunderground v.1.15,2013-08-23 14:10:00,
2013-08-23 07:15:00,51.2,48.7,29.86,SSE,157,0.0,7.0,91,0.00,,,0.00,Wunderground v.1.15,2013-08-23 14:15:00,
2013-08-23 07:20:00,51.4,48.9,29.87,SSE,157,0.0,7.0,91,0.00,,,0.00,Wunderground v.1.15,2013-08-23 14:20:00,
2013-08-23 07:25:00,51.9,49.6,29.87,N/A,-737280,0.0,-999.0,92,0.00,,,0.00,Wunderground v.1.15,2013-08-23 14:25:00,
2013-08-23 07:30:00,51.8,49.5,29.87,SSE,157,0.0,7.0,92,0.00,,,0.00,Wunderground v.1.15,2013-08-23 14:30:00,
2013-08-23 07:35:00,52.3,50.0,29.87,SSE,157,0.0,7.0,92,0.00,,,0.00,Wunderground v.1.15,2013-08-23 14:35:00,
2013-08-23 07:40:00,53.0,51.3,29.87,SSE,157,0.0,7.0,94,0.00,,,0.00,Wunderground v.1.15,2013-08-23 14:40:00,
2013-08-23 07:45:00,53.6,51.6,29.87,SSE,157,0.0,7.0,93,0.00,,,0.00,Wunderground v.1.15,2013-08-23 14:45:00,
2013-08-23 07:50:00,54.0,52.0,29.87,SSE,157,0.0,7.0,93,0.00,,,0.00,Wunderground v.1.15,2013-08-23 14:50:00,
2013-08-23 07:55:00,55.0,53.0,29.87,N/A,-737280,0.0,-999.0,93,0.00,,,0.00,Wunderground v.1.15,2013-08-23 14:55:00,
2013-08-23 08:00:00,55.0,53.3,29.87,SSE,157,0.0,7.0,94,0.00,,,0.00,Wunderground v.1.15,2013-08-23 15:00:00,
2013-08-23 08:05:00,55.5,53.8,29.86,SSE,157,0.0,7.0,94,0.00,,,0.00,Wunderground v.1.15,2013-08-23 15:05:00,
2013-08-23 08:10:00,55.0,53.0,29.87,N/A,-737280,0.0,-999.0,93,0.00,,,0.00,Wunderground v.1.15,2013-08-23 15:10:00,
2013-08-23 08:15:00,57.0,55.0,29.87,SSE,157,0.0,0.0,93,0.00,,,0.00,Wunderground v.1.15,2013-08-23 15:15:00,
2013-08-23 08:20:00,58.1,55.5,29.87,SSE,157,0.0,0.0,91,0.00,,,0.00,Wunderground v.1.15,2013-08-23 15:20:00,
2013-08-23 08:25:00,59.2,55.6,29.87,SSE,157,0.0,0.0,88,0.00,,,0.00,Wunderground v.1.15,2013-08-23 15:25:00,
2013-08-23 08:30:00,60.1,55.9,29.86,N/A,-737280,0.0,-999.0,86,0.00,,,0.00,Wunderground v.1.15,2013-08-23 15:30:00,
2013-08-23 08:34:00,60.8,56.3,29.86,SSE,157,0.0,0.0,85,0.00,,,0.00,Wunderground v.1.15,2013-08-23 15:34:00,
2013-08-23 08:35:00,60.1,55.9,29.86,N/A,-737280,0.0,-999.0,86,0.00,,,0.00,Wunderground v.1.15,2013-08-23 15:35:00,
2013-08-23 08:40:00,60.1,55.9,29.86,N/A,-737280,0.0,-999.0,86,0.00,,,0.00,Wunderground v.1.15,2013-08-23 15:40:00,
2013-08-23 08:45:00,62.4,56.5,29.87,SSE,157,0.0,0.0,81,0.00,,,0.00,Wunderground v.1.15,2013-08-23 15:45:00,
2013-08-23 08:50:00,63.3,57.4,29.87,SSE,157,0.0,0.0,81,0.00,,,0.00,Wunderground v.1.15,2013-08-23 15:50:00,
2013-08-23 08:55:00,64.0,57.7,29.87,SSE,157,0.0,0.0,80,0.00,,,0.00,Wunderground v.1.15,2013-08-23 15:55:00,
2013-08-23 09:00:00,64.8,57.8,29.87,SSE,157,0.0,0.0,78,0.00,,,0.00,Wunderground v.1.15,2013-08-23 16:00:00,
2013-08-23 09:05:00,65.8,58.4,29.87,SSE,157,0.0,1.0,77,0.00,,,0.00,Wunderground v.1.15,2013-08-23 16:05:00,
2013-08-23 09:10:00,66.6,58.1,29.87,SSE,157,0.0,1.0,74,0.00,,,0.00,Wunderground v.1.15,2013-08-23 16:10:00,
2013-08-23 09:15:00,67.1,58.5,29.87,SSE,157,1.0,1.0,74,0.00,,,0.00,Wunderground v.1.15,2013-08-23 16:15:00,
2013-08-23 09:20:00,67.6,58.2,29.87,SSE,157,1.0,1.0,72,0.00,,,0.00,Wunderground v.1.15,2013-08-23 16:20:00,
2013-08-23 09:25:00,68.0,57.4,29.86,SSE,157,0.0,1.0,69,0.00,,,0.00,Wunderground v.1.15,2013-08-23 16:25:00,
2013-08-23 09:30:00,68.5,57.9,29.86,SSE,158,0.0,-999.0,69,0.00,,,0.00,Wunderground v.1.15,2013-08-23 16:30:00,
2013-08-23 09:34:00,69.0,58.0,29.86,SSE,157,0.0,1.0,68,0.00,,,0.00,Wunderground v.1.15,2013-08-23 16:34:00,
2013-08-23 09:35:00,68.5,57.9,29.86,SSE,158,0.0,-999.0,69,0.00,,,0.00,Wunderground v.1.15,2013-08-23 16:35:00,
2013-08-23 09:40:00,69.5,57.6,29.86,SSE,157,0.0,1.0,66,0.00,,,0.00,Wunderground v.1.15,2013-08-23 16:40:00,
2013-08-23 09:45:00,71.6,59.2,29.86,SSE,158,1.0,-999.0,65,0.00,,,0.00,Wunderground v.1.15,2013-08-23 16:45:00,
2013-08-23 09:50:00,70.6,57.8,29.86,SSE,157,1.0,2.0,64,0.00,,,0.00,Wunderground v.1.15,2013-08-23 16:50:00,
2013-08-23 09:55:00,71.1,58.3,29.86,SSE,157,1.0,2.0,64,0.00,,,0.00,Wunderground v.1.15,2013-08-23 16:55:00,
2013-08-23 10:00:00,71.6,58.8,29.86,SSE,157,2.0,2.0,64,0.00,,,0.00,Wunderground v.1.15,2013-08-23 17:00:00,
2013-08-23 10:05:00,72.0,59.2,29.86,SSE,157,1.0,2.0,64,0.00,,,0.00,Wunderground v.1.15,2013-08-23 17:05:00,
2013-08-23 10:10:00,72.6,58.8,29.86,SSE,157,1.0,1.0,62,0.00,,,0.00,Wunderground v.1.15,2013-08-23 17:10:00,
2013-08-23 10:15:00,73.1,59.3,29.86,SSE,157,2.0,2.0,62,0.00,,,0.00,Wunderground v.1.15,2013-08-23 17:15:00,
2013-08-23 10:20:00,74.7,58.9,29.86,SSE,158,2.0,-999.0,58,0.00,,,0.00,Wunderground v.1.15,2013-08-23 17:20:00,
2013-08-23 10:25:00,74.3,59.0,29.86,SE,137,2.0,2.0,59,0.00,,,0.00,Wunderground v.1.15,2013-08-23 17:25:00,
2013-08-23 10:30:00,74.7,58.9,29.86,SSW,193,2.0,3.0,58,0.00,,,0.00,Wunderground v.1.15,2013-08-23 17:30:00,
2013-08-23 10:35:00,74.7,58.9,29.86,SSE,158,2.0,-999.0,58,0.00,,,0.00,Wunderground v.1.15,2013-08-23 17:35:00,
2013-08-23 10:39:00,75.3,60.0,29.86,SSW,205,2.0,2.0,59,0.00,,,0.00,Wunderground v.1.15,2013-08-23 17:39:00,
2013-08-23 10:40:00,74.7,58.9,29.86,SSE,158,2.0,-999.0,58,0.00,,,0.00,Wunderground v.1.15,2013-08-23 17:40:00,
2013-08-23 10:45:00,75.7,58.9,29.86,West,267,2.0,2.0,56,0.00,,,0.00,Wunderground v.1.15,2013-08-23 17:45:00,
2013-08-23 10:50:00,76.1,59.3,29.86,South,187,1.0,1.0,56,0.00,,,0.00,Wunderground v.1.15,2013-08-23 17:50:00,
2013-08-23 10:55:00,76.6,59.7,29.86,SSW,193,1.0,1.0,56,0.00,,,0.00,Wunderground v.1.15,2013-08-23 17:55:00,
2013-08-23 11:00:00,77.2,59.8,29.86,SSW,201,1.0,3.0,55,0.00,,,0.00,Wunderground v.1.15,2013-08-23 18:00:00,
2013-08-23 11:05:00,77.8,60.3,29.86,SSE,158,1.0,3.0,55,0.00,,,0.00,Wunderground v.1.15,2013-08-23 18:05:00,
2013-08-23 11:10:00,78.3,59.8,29.86,South,174,1.0,1.0,53,0.00,,,0.00,Wunderground v.1.15,2013-08-23 18:10:00,
2013-08-23 11:15:00,78.8,59.7,29.85,WNW,293,1.0,1.0,52,0.00,,,0.00,Wunderground v.1.15,2013-08-23 18:15:00,
2013-08-23 11:20:00,79.5,61.4,29.86,WSW,256,0.0,2.0,54,0.00,,,0.00,Wunderground v.1.15,2013-08-23 18:20:00,
2013-08-23 11:25:00,80.2,59.3,29.85,SSE,155,1.0,2.0,49,0.00,,,0.00,Wunderground v.1.15,2013-08-23 18:25:00,
2013-08-23 11:30:00,80.7,58.6,29.85,South,180,1.0,1.0,47,0.00,,,0.00,Wunderground v.1.15,2013-08-23 18:30:00,
2013-08-23 11:35:00,81.2,57.8,29.85,NW,311,1.0,3.0,45,0.00,,,0.00,Wunderground v.1.15,2013-08-23 18:35:00,
2013-08-23 11:40:00,80.7,58.6,29.85,SSE,158,1.0,-999.0,47,0.00,,,0.00,Wunderground v.1.15,2013-08-23 18:40:00,
2013-08-23 11:44:00,82.2,58.7,29.85,South,170,1.0,5.0,45,0.00,,,0.00,Wunderground v.1.15,2013-08-23 18:44:00,
2013-08-23 11:45:00,83.5,60.5,29.85,SSE,158,1.0,-999.0,46,0.00,,,0.00,Wunderground v.1.15,2013-08-23 18:45:00,
2013-08-23 11:50:00,82.8,59.3,29.85,SSE,155,1.0,1.0,45,0.00,,,0.00,Wunderground v.1.15,2013-08-23 18:50:00,
2013-08-23 11:55:00,83.3,59.1,29.85,South,178,1.0,1.0,44,0.00,,,0.00,Wunderground v.1.15,2013-08-23 18:55:00,
2013-08-23 12:00:00,83.5,60.5,29.85,SSE,158,1.0,-999.0,46,0.00,,,0.00,Wunderground v.1.15,2013-08-23 19:00:00,
2013-08-23 12:05:00,83.8,60.2,29.84,WSW,255,1.0,3.0,45,0.00,,,0.00,Wunderground v.1.15,2013-08-23 19:05:00,
2013-08-23 12:10:00,83.8,58.9,29.84,WSW,243,1.0,2.0,43,0.00,,,0.00,Wunderground v.1.15,2013-08-23 19:10:00,
2013-08-23 12:15:00,84.0,59.1,29.84,South,183,2.0,2.0,43,0.00,,,0.00,Wunderground v.1.15,2013-08-23 19:15:00,
2013-08-23 12:20:00,84.1,59.2,29.84,South,183,2.0,2.0,43,0.00,,,0.00,Wunderground v.1.15,2013-08-23 19:20:00,
2013-08-23 12:25:00,84.1,58.5,29.84,SW,230,2.0,3.0,42,0.00,,,0.00,Wunderground v.1.15,2013-08-23 19:25:00,
2013-08-23 12:30:00,84.0,59.7,29.84,SSE,160,2.0,2.0,44,0.00,,,0.00,Wunderground v.1.15,2013-08-23 19:30:00,
2013-08-23 12:35:00,84.0,59.1,29.84,SSE,158,2.0,-999.0,43,0.00,,,0.00,Wunderground v.1.15,2013-08-23 19:35:00,
2013-08-23 12:40:00,84.5,58.9,29.84,SW,233,1.0,1.0,42,0.00,,,0.00,Wunderground v.1.15,2013-08-23 19:40:00,
2013-08-23 12:45:00,85.1,58.8,29.83,WSW,248,1.0,-999.0,41,0.00,,,0.00,Wunderground v.1.15,2013-08-23 19:45:00,
2013-08-23 12:49:00,84.6,59.6,29.83,North,1,1.0,1.0,43,0.00,,,0.00,Wunderground v.1.15,2013-08-23 19:49:00,
2013-08-23 12:50:00,85.1,58.8,29.83,WSW,248,1.0,-999.0,41,0.00,,,0.00,Wunderground v.1.15,2013-08-23 19:50:00,
2013-08-23 12:55:00,84.8,59.2,29.83,West,264,1.0,1.0,42,0.00,,,0.00,Wunderground v.1.15,2013-08-23 19:55:00,
2013-08-23 13:00:00,85.0,58.7,29.83,WNW,297,1.0,1.0,41,0.00,,,0.00,Wunderground v.1.15,2013-08-23 20:00:00,
2013-08-23 13:05:00,85.0,59.3,29.83,SE,133,1.0,1.0,42,0.00,,,0.00,Wunderground v.1.15,2013-08-23 20:05:00,
2013-08-23 13:10:00,85.1,58.8,29.83,WSW,248,1.0,-999.0,41,0.00,,,0.00,Wunderground v.1.15,2013-08-23 20:10:00,
2013-08-23 13:15:00,84.9,57.9,29.83,SSW,198,3.0,4.0,40,0.00,,,0.00,Wunderground v.1.15,2013-08-23 20:15:00,
2013-08-23 13:20:00,84.9,58.6,29.83,SSW,211,3.0,3.0,41,0.00,,,0.00,Wunderground v.1.15,2013-08-23 20:20:00,
2013-08-23 13:25:00,84.6,58.3,29.83,SW,220,3.0,3.0,41,0.00,,,0.00,Wunderground v.1.15,2013-08-23 20:25:00,
2013-08-23 13:30:00,84.7,58.4,29.83,WSW,243,3.0,3.0,41,0.00,,,0.00,Wunderground v.1.15,2013-08-23 20:30:00,
2013-08-23 13:35:00,84.9,58.6,29.82,West,276,2.0,10.0,41,0.00,,,0.00,Wunderground v.1.15,2013-08-23 20:35:00,
2013-08-23 13:40:00,84.7,58.4,29.83,SSE,158,2.0,-999.0,41,0.00,,,0.00,Wunderground v.1.15,2013-08-23 20:40:00,
2013-08-23 13:45:00,84.7,59.1,29.82,SSW,209,2.0,3.0,42,0.00,,,0.00,Wunderground v.1.15,2013-08-23 20:45:00,
2013-08-23 13:50:00,84.9,59.9,29.82,SW,225,2.0,-999.0,43,0.00,,,0.00,Wunderground v.1.15,2013-08-23 20:50:00,
2013-08-23 13:55:00,84.4,58.1,29.82,WSW,248,2.0,2.0,41,0.00,,,0.00,Wunderground v.1.15,2013-08-23 20:55:00,
2013-08-23 14:00:00,84.8,59.8,29.82,ENE,66,1.0,2.0,43,0.00,,,0.00,Wunderground v.1.15,2013-08-23 21:00:00,
2013-08-23 14:05:00,85.3,58.9,29.82,SE,139,1.0,5.0,41,0.00,,,0.00,Wunderground v.1.15,2013-08-23 21:05:00,
2013-08-23 14:10:00,85.3,58.9,29.81,SSW,209,2.0,2.0,41,0.00,,,0.00,Wunderground v.1.15,2013-08-23 21:10:00,
2013-08-23 14:15:00,85.0,59.3,29.81,South,191,2.0,2.0,42,0.00,,,0.00,Wunderground v.1.15,2013-08-23 21:15:00,
2013-08-23 14:20:00,85.2,58.8,29.81,West,272,2.0,2.0,41,0.00,,,0.00,Wunderground v.1.15,2013-08-23 21:20:00,
2013-08-23 14:25:00,85.3,58.9,29.81,WSW,251,3.0,3.0,41,0.00,,,0.00,Wunderground v.1.15,2013-08-23 21:25:00,
2013-08-23 14:30:00,85.3,59.6,29.81,NW,306,2.0,2.0,42,0.00,,,0.00,Wunderground v.1.15,2013-08-23 21:30:00,
2013-08-23 14:35:00,85.9,58.8,29.81,SSW,200,1.0,2.0,40,0.00,,,0.00,Wunderground v.1.15,2013-08-23 21:35:00,
2013-08-23 14:40:00,86.3,59.1,29.81,SW,225,1.0,2.0,40,0.00,,,0.00,Wunderground v.1.15,2013-08-23 21:40:00,
2013-08-23 14:45:00,87.1,59.8,29.80,SW,225,1.0,-999.0,40,0.00,,,0.00,Wunderground v.1.15,2013-08-23 21:45:00,
2013-08-23 14:50:00,86.4,59.9,29.81,SW,225,2.0,3.0,41,0.00,,,0.00,Wunderground v.1.15,2013-08-23 21:50:00,
2013-08-23 14:55:00,87.1,59.8,29.80,SW,225,1.0,-999.0,40,0.00,,,0.00,Wunderground v.1.15,2013-08-23 21:55:00,
2013-08-23 15:00:00,87.0,59.8,29.80,South,185,1.0,1.0,40,0.00,,,0.00,Wunderground v.1.15,2013-08-23 22:00:00,
2013-08-23 15:05:00,87.5,60.2,29.80,South,179,1.0,1.0,40,0.00,,,0.00,Wunderground v.1.15,2013-08-23 22:05:00,
2013-08-23 15:10:00,87.9,58.4,29.80,WNW,292,1.0,1.0,37,0.00,,,0.00,Wunderground v.1.15,2013-08-23 22:10:00,
2013-08-23 15:15:00,87.9,59.1,29.80,WNW,293,1.0,1.0,38,0.00,,,0.00,Wunderground v.1.15,2013-08-23 22:15:00,
2013-08-23 15:20:00,87.6,57.3,29.80,SSW,209,1.0,1.0,36,0.00,,,0.00,Wunderground v.1.15,2013-08-23 22:20:00,
2013-08-23 15:25:00,87.6,56.6,29.79,SSW,203,1.0,-999.0,35,0.00,,,0.00,Wunderground v.1.15,2013-08-23 22:25:00,
2013-08-23 15:30:00,87.6,56.6,29.79,WSW,241,1.0,4.0,35,0.00,,,0.00,Wunderground v.1.15,2013-08-23 22:30:00,
2013-08-23 15:35:00,87.4,56.4,29.79,SSW,211,1.0,5.0,35,0.00,,,0.00,Wunderground v.1.15,2013-08-23 22:35:00,
2013-08-23 15:40:00,87.1,55.3,29.79,SW,221,2.0,2.0,34,0.00,,,0.00,Wunderground v.1.15,2013-08-23 22:40:00,
2013-08-23 15:45:00,88.8,58.4,29.79,West,270,1.0,-999.0,36,0.00,,,0.00,Wunderground v.1.15,2013-08-23 22:45:00,
2013-08-23 15:49:00,87.4,56.4,29.79,NE,44,1.0,1.0,35,0.00,,,0.00,Wunderground v.1.15,2013-08-23 22:49:00,
2013-08-23 15:50:00,88.8,58.4,29.79,West,270,1.0,-999.0,36,0.00,,,0.00,Wunderground v.1.15,2013-08-23 22:50:00,
2013-08-23 15:55:00,88.1,59.3,29.79,ENE,62,1.0,1.0,38,0.00,,,0.00,Wunderground v.1.15,2013-08-23 22:55:00,
2013-08-23 16:00:00,88.8,58.4,29.79,West,270,1.0,-999.0,36,0.00,,,0.00,Wunderground v.1.15,2013-08-23 23:00:00,
2013-08-23 16:05:00,89.0,57.8,29.79,WSW,247,1.0,1.0,35,0.00,,,0.00,Wunderground v.1.15,2013-08-23 23:05:00,
2013-08-23 16:10:00,88.7,56.7,29.79,North,4,1.0,1.0,34,0.00,,,0.00,Wunderground v.1.15,2013-08-23 23:10:00,
2013-08-23 16:15:00,88.4,54.8,29.79,West,261,1.0,1.0,32,0.00,,,0.00,Wunderground v.1.15,2013-08-23 23:15:00,
2013-08-23 16:20:00,88.1,55.4,29.79,South,189,1.0,1.0,33,0.00,,,0.00,Wunderground v.1.15,2013-08-23 23:20:00,
2013-08-23 16:25:00,87.7,55.9,29.79,South,184,1.0,1.0,34,0.00,,,0.00,Wunderground v.1.15,2013-08-23 23:25:00,
2013-08-23 16:30:00,87.2,55.4,29.78,WSW,248,1.0,-999.0,34,0.00,,,0.00,Wunderground v.1.15,2013-08-23 23:30:00,
2013-08-23 16:35:00,86.7,56.6,29.78,SW,216,1.0,1.0,36,0.00,,,0.00,Wunderground v.1.15,2013-08-23 23:35:00,
2013-08-23 16:40:00,86.4,53.9,29.78,WSW,244,1.0,1.0,33,0.00,,,0.00,Wunderground v.1.15,2013-08-23 23:40:00,
2013-08-23 16:45:00,86.3,55.4,29.78,WSW,249,1.0,1.0,35,0.00,,,0.00,Wunderground v.1.15,2013-08-23 23:45:00,
2013-08-23 16:50:00,87.0,56.8,29.77,WSW,248,1.0,-999.0,36,0.00,,,0.00,Wunderground v.1.15,2013-08-23 23:50:00,
2013-08-23 16:54:00,86.7,56.6,29.78,SSW,199,1.0,1.0,36,0.00,,,0.00,Wunderground v.1.15,2013-08-23 23:54:00,
2013-08-23 16:55:00,87.0,56.8,29.77,WSW,248,1.0,-999.0,36,0.00,,,0.00,Wunderground v.1.15,2013-08-23 23:55:00,
2013-08-23 17:00:00,86.9,57.5,29.77,West,276,1.0,1.0,37,0.00,,,0.00,Wunderground v.1.15,2013-08-24 00:00:00,
2013-08-23 17:05:00,87.0,56.8,29.77,WSW,248,1.0,-999.0,36,0.00,,,0.00,Wunderground v.1.15,2013-08-24 00:05:00,
2013-08-23 17:10:00,86.9,56.7,29.77,SSW,195,1.0,3.0,36,0.00,,,0.00,Wunderground v.1.15,2013-08-24 00:10:00,
2013-08-23 17:15:00,86.0,57.4,29.77,SSE,166,1.0,3.0,38,0.00,,,0.00,Wunderground v.1.15,2013-08-24 00:15:00,
2013-08-23 17:20:00,86.0,57.4,29.77,SSE,166,1.0,1.0,38,0.00,,,0.00,Wunderground v.1.15,2013-08-24 00:20:00,
2013-08-23 17:25:00,87.2,57.8,29.77,SSE,158,1.0,-999.0,37,0.00,,,0.00,Wunderground v.1.15,2013-08-24 00:25:00,
2013-08-23 17:30:00,87.2,57.8,29.77,SSW,213,0.0,2.0,37,0.00,,,0.00,Wunderground v.1.15,2013-08-24 00:30:00,
2013-08-23 17:35:00,86.5,57.1,29.77,WSW,251,1.0,3.0,37,0.00,,,0.00,Wunderground v.1.15,2013-08-24 00:35:00,
2013-08-23 17:40:00,85.7,58.6,29.77,SSW,207,1.0,1.0,40,0.00,,,0.00,Wunderground v.1.15,2013-08-24 00:40:00,
2013-08-23 17:45:00,85.2,58.2,29.76,South,170,1.0,1.0,40,0.00,,,0.00,Wunderground v.1.15,2013-08-24 00:45:00,
2013-08-23 17:50:00,84.4,58.1,29.76,SSE,158,1.0,-999.0,41,0.00,,,0.00,Wunderground v.1.15,2013-08-24 00:50:00,
2013-08-23 17:54:00,84.3,58.0,29.76,SSE,165,2.0,5.0,41,0.00,,,0.00,Wunderground v.1.15,2013-08-24 00:54:00,
2013-08-23 17:55:00,84.4,58.1,29.76,SSE,158,1.0,-999.0,41,0.00,,,0.00,Wunderground v.1.15,2013-08-24 00:55:00,
2013-08-23 18:00:00,84.4,58.8,29.76,SSE,163,1.0,2.0,42,0.00,,,0.00,Wunderground v.1.15,2013-08-24 01:00:00,
2013-08-23 18:05:00,84.7,58.4,29.76,SSE,151,1.0,2.0,41,0.00,,,0.00,Wunderground v.1.15,2013-08-24 01:05:00,
2013-08-23 18:10:00,84.8,57.8,29.76,SSE,149,1.0,1.0,40,0.00,,,0.00,Wunderground v.1.15,2013-08-24 01:10:00,
2013-08-23 18:15:00,83.7,58.8,29.76,SSE,158,1.0,-999.0,43,0.00,,,0.00,Wunderground v.1.15,2013-08-24 01:15:00,
2013-08-23 18:20:00,85.0,58.7,29.76,SW,223,1.0,1.0,41,0.00,,,0.00,Wunderground v.1.15,2013-08-24 01:20:00,
2013-08-23 18:25:00,84.5,58.9,29.76,SW,224,0.0,1.0,42,0.00,,,0.00,Wunderground v.1.15,2013-08-24 01:25:00,
2013-08-23 18:30:00,83.8,58.9,29.76,SSE,166,0.0,1.0,43,0.00,,,0.00,Wunderground v.1.15,2013-08-24 01:30:00,
2013-08-23 18:35:00,82.6,59.1,29.76,SE,141,1.0,1.0,45,0.00,,,0.00,Wunderground v.1.15,2013-08-24 01:35:00,
2013-08-23 18:40:00,81.3,58.5,29.76,SE,141,1.0,1.0,46,0.00,,,0.00,Wunderground v.1.15,2013-08-24 01:40:00,
2013-08-23 18:45:00,78.4,58.2,29.76,SE,135,0.0,-999.0,50,0.00,,,0.00,Wunderground v.1.15,2013-08-24 01:45:00,
2013-08-23 18:50:00,79.8,58.4,29.76,SE,145,0.0,0.0,48,0.00,,,0.00,Wunderground v.1.15,2013-08-24 01:50:00,
2013-08-23 18:55:00,79.1,58.3,29.76,SSE,147,0.0,0.0,49,0.00,,,0.00,Wunderground v.1.15,2013-08-24 01:55:00,
2013-08-23 19:00:00,78.4,58.2,29.76,SE,135,0.0,-999.0,50,0.00,,,0.00,Wunderground v.1.15,2013-08-24 02:00:00,
2013-08-23 19:05:00,77.8,57.7,29.76,SSE,147,0.0,1.0,50,0.00,,,0.00,Wunderground v.1.15,2013-08-24 02:05:00,
2013-08-23 19:10:00,77.2,57.7,29.76,SSE,147,0.0,0.0,51,0.00,,,0.00,Wunderground v.1.15,2013-08-24 02:10:00,
2013-08-23 19:15:00,76.7,57.7,29.76,SSE,147,0.0,0.0,52,0.00,,,0.00,Wunderground v.1.15,2013-08-24 02:15:00,
2013-08-23 19:20:00,76.1,57.2,29.77,SSE,147,0.0,0.0,52,0.00,,,0.00,Wunderground v.1.15,2013-08-24 02:20:00,
2013-08-23 19:25:00,75.6,57.3,29.77,SSE,147,0.0,0.0,53,0.00,,,0.00,Wunderground v.1.15,2013-08-24 02:25:00,
2013-08-23 19:30:00,75.1,57.3,29.77,SSE,147,0.0,0.0,54,0.00,,,0.00,Wunderground v.1.15,2013-08-24 02:30:00,
2013-08-23 19:35:00,74.6,57.4,29.77,SSE,147,0.0,0.0,55,0.00,,,0.00,Wunderground v.1.15,2013-08-24 02:35:00,
2013-08-23 19:40:00,74.1,56.9,29.77,SSE,147,0.0,0.0,55,0.00,,,0.00,Wunderground v.1.15,2013-08-24 02:40:00,
2013-08-23 19:45:00,73.5,57.3,29.77,SSE,147,0.0,0.0,57,0.00,,,0.00,Wunderground v.1.15,2013-08-24 02:45:00,
2013-08-23 19:50:00,71.7,56.6,29.77,N/A,-737280,0.0,-999.0,59,0.00,,,0.00,Wunderground v.1.15,2013-08-24 02:50:00,
2013-08-23 19:55:00,72.2,57.1,29.77,SSE,147,0.0,0.0,59,0.00,,,0.00,Wunderground v.1.15,2013-08-24 02:55:00,
2013-08-23 20:00:00,71.7,56.6,29.77,N/A,-737280,0.0,-999.0,59,0.00,,,0.00,Wunderground v.1.15,2013-08-24 03:00:00,
2013-08-23 20:05:00,71.2,56.6,29.78,SSE,147,0.0,0.0,60,0.00,,,0.00,Wunderground v.1.15,2013-08-24 03:05:00,
2013-08-23 20:10:00,70.7,56.6,29.78,SSE,147,0.0,0.0,61,0.00,,,0.00,Wunderground v.1.15,2013-08-24 03:10:00,
2013-08-23 20:15:00,70.2,56.1,29.78,SSE,147,0.0,0.0,61,0.00,,,0.00,Wunderground v.1.15,2013-08-24 03:15:00,
2013-08-23 20:20:00,69.6,56.0,29.78,SSE,147,0.0,0.0,62,0.00,,,0.00,Wunderground v.1.15,2013-08-24 03:20:00,
2013-08-23 20:25:00,69.0,56.7,29.78,SSE,147,0.0,0.0,65,0.00,,,0.00,Wunderground v.1.15,2013-08-24 03:25:00,
2013-08-23 20:30:00,68.4,57.0,29.78,SSE,158,0.0,-999.0,67,0.00,,,0.00,Wunderground v.1.15,2013-08-24 03:30:00,
2013-08-23 20:35:00,67.9,56.9,29.78,SSE,147,0.0,0.0,68,0.00,,,0.00,Wunderground v.1.15,2013-08-24 03:35:00,
2013-08-23 20:40:00,67.3,56.4,29.78,SSE,147,0.0,0.0,68,0.00,,,0.00,Wunderground v.1.15,2013-08-24 03:40:00,
2013-08-23 20:45:00,66.7,55.8,29.78,SSE,147,0.0,0.0,68,0.00,,,0.00,Wunderground v.1.15,2013-08-24 03:45:00,
2013-08-23 20:50:00,65.0,55.0,29.79,N/A,-737280,0.0,-999.0,70,0.00,,,0.00,Wunderground v.1.15,2013-08-24 03:50:00,
2013-08-23 20:54:00,65.5,55.5,29.78,SSE,147,0.0,0.0,70,0.00,,,0.00,Wunderground v.1.15,2013-08-24 03:54:00,
2013-08-23 20:55:00,65.0,55.0,29.79,N/A,-737280,0.0,-999.0,70,0.00,,,0.00,Wunderground v.1.15,2013-08-24 03:55:00,
2013-08-23 21:00:00,65.1,55.1,29.79,SSE,147,0.0,0.0,70,0.00,,,0.00,Wunderground v.1.15,2013-08-24 04:00:00,
2013-08-23 21:04:00,64.7,55.1,29.79,SSE,147,0.0,0.0,71,0.00,,,0.00,Wunderground v.1.15,2013-08-24 04:04:00,
2013-08-23 21:05:00,65.0,55.0,29.79,N/A,-737280,0.0,-999.0,70,0.00,,,0.00,Wunderground v.1.15,2013-08-24 04:05:00,
2013-08-23 21:10:00,64.3,54.7,29.79,SSE,147,0.0,0.0,71,0.00,,,0.00,Wunderground v.1.15,2013-08-24 04:10:00,
2013-08-23 21:15:00,63.9,54.7,29.79,SSE,147,0.0,0.0,72,0.00,,,0.00,Wunderground v.1.15,2013-08-24 04:15:00,
2013-08-23 21:20:00,63.4,54.2,29.80,SSE,147,0.0,0.0,72,0.00,,,0.00,Wunderground v.1.15,2013-08-24 04:20:00,
2013-08-23 21:25:00,62.9,53.7,29.80,SSE,147,0.0,0.0,72,0.00,,,0.00,Wunderground v.1.15,2013-08-24 04:25:00,
2013-08-23 21:30:00,62.5,53.7,29.80,SSE,147,0.0,0.0,73,0.00,,,0.00,Wunderground v.1.15,2013-08-24 04:30:00,
2013-08-23 21:35:00,62.5,53.7,29.80,N/A,-737280,0.0,-999.0,73,0.00,,,0.00,Wunderground v.1.15,2013-08-24 04:35:00,
2013-08-23 21:40:00,61.8,53.4,29.80,SSE,147,0.0,0.0,74,0.00,,,0.00,Wunderground v.1.15,2013-08-24 04:40:00,
2013-08-23 21:45:00,61.5,53.5,29.80,SSE,147,0.0,0.0,75,0.00,,,0.00,Wunderground v.1.15,2013-08-24 04:45:00,
2013-08-23 21:50:00,61.2,53.2,29.80,SSE,147,0.0,0.0,75,0.00,,,0.00,Wunderground v.1.15,2013-08-24 04:50:00,
2013-08-23 21:55:00,60.6,53.0,29.80,N/A,-737280,0.0,-999.0,76,0.00,,,0.00,Wunderground v.1.15,2013-08-24 04:55:00,
2013-08-23 21:59:00,60.6,53.0,29.80,SSE,147,0.0,0.0,76,0.00,,,0.00,Wunderground v.1.15,2013-08-24 04:59:00,
2013-08-23 22:00:00,60.6,53.0,29.80,N/A,-737280,0.0,-999.0,76,0.00,,,0.00,Wunderground v.1.15,2013-08-24 05:00:00,
2013-08-23 22:05:00,60.3,52.7,29.79,SSE,147,0.0,0.0,76,0.00,,,0.00,Wunderground v.1.15,2013-08-24 05:05:00,
2013-08-23 22:10:00,60.6,53.0,29.80,N/A,-737280,0.0,-999.0,76,0.00,,,0.00,Wunderground v.1.15,2013-08-24 05:10:00,
2013-08-23 22:15:00,59.7,52.5,29.80,SSE,147,0.0,0.0,77,0.00,,,0.00,Wunderground v.1.15,2013-08-24 05:15:00,
2013-08-23 22:20:00,59.5,52.3,29.80,SSE,147,0.0,0.0,77,0.00,,,0.00,Wunderground v.1.15,2013-08-24 05:20:00,
2013-08-23 22:25:00,59.2,52.3,29.80,SSE,147,0.0,0.0,78,0.00,,,0.00,Wunderground v.1.15,2013-08-24 05:25:00,
2013-08-23 22:30:00,58.9,52.4,29.80,SSE,147,0.0,0.0,79,0.00,,,0.00,Wunderground v.1.15,2013-08-24 05:30:00,
2013-08-23 22:35:00,58.6,52.1,29.80,SSE,147,0.0,0.0,79,0.00,,,0.00,Wunderground v.1.15,2013-08-24 05:35:00,
2013-08-23 22:40:00,58.4,52.3,29.80,SSE,147,0.0,0.0,80,0.00,,,0.00,Wunderground v.1.15,2013-08-24 05:40:00,
2013-08-23 22:45:00,58.2,52.1,29.80,SSE,147,0.0,0.0,80,0.00,,,0.00,Wunderground v.1.15,2013-08-24 05:45:00,
2013-08-23 22:50:00,58.0,51.9,29.80,SSE,147,0.0,0.0,80,0.00,,,0.00,Wunderground v.1.15,2013-08-24 05:50:00,
2013-08-23 22:55:00,57.8,51.7,29.80,SSE,147,0.0,0.0,80,0.00,,,0.00,Wunderground v.1.15,2013-08-24 05:55:00,
2013-08-23 23:00:00,57.6,51.8,29.81,N/A,-737280,0.0,-999.0,81,0.00,,,0.00,Wunderground v.1.15,2013-08-24 06:00:00,
2013-08-23 23:05:00,57.4,51.6,29.81,SSE,147,0.0,0.0,81,0.00,,,0.00,Wunderground v.1.15,2013-08-24 06:05:00,
2013-08-23 23:10:00,57.2,51.4,29.80,SSE,147,0.0,0.0,81,0.00,,,0.00,Wunderground v.1.15,2013-08-24 06:10:00,
2013-08-23 23:15:00,57.0,51.6,29.81,SSE,147,0.0,0.0,82,0.00,,,0.00,Wunderground v.1.15,2013-08-24 06:15:00,
2013-08-23 23:20:00,56.9,51.5,29.81,SSE,147,0.0,0.0,82,0.00,,,0.00,Wunderground v.1.15,2013-08-24 06:20:00,
2013-08-23 23:25:00,56.7,51.3,29.81,SSE,147,0.0,0.0,82,0.00,,,0.00,Wunderground v.1.15,2013-08-24 06:25:00,
2013-08-23 23:30:00,56.5,51.1,29.81,SSE,147,0.0,0.0,82,0.00,,,0.00,Wunderground v.1.15,2013-08-24 06:30:00,
2013-08-23 23:35:00,56.3,51.2,29.81,SSE,147,0.0,0.0,83,0.00,,,0.00,Wunderground v.1.15,2013-08-24 06:35:00,
2013-08-23 23:40:00,56.2,50.8,29.81,SSE,147,0.0,0.0,82,0.00,,,0.00,Wunderground v.1.15,2013-08-24 06:40:00,
2013-08-23 23:45:00,56.0,50.9,29.81,SSE,147,0.0,0.0,83,0.00,,,0.00,Wunderground v.1.15,2013-08-24 06:45:00,
2013-08-23 23:50:00,55.6,50.8,29.81,N/A,-737280,0.0,-999.0,84,0.00,,,0.00,Wunderground v.1.15,2013-08-24 06:50:00,
2013-08-23 23:55:00,55.8,50.7,29.81,SSE,147,0.0,0.0,83,0.00,,,0.00,Wunderground v.1.15,2013-08-24 06:55:00,